sensor_id;sensor_type;location;lat;lon;timestamp;temperature;humidity
15922;DHT22;8060;50.948;3.146;2022-11-20T08:12:46;6.80;99.90
15922;DHT22;8060;50.948;3.146;2022-11-20T08:15:32;6.80;99.90
15922;DHT22;8060;50.948;3.146;2022-11-20T08:18:02;6.90;99.90
15922;DHT22;8060;50.948;3.146;2022-11-20T08:20:51;7.00;99.90
15922;DHT22;8060;50.948;3.146;2022-11-20T08:23:19;7.10;99.90
15922;DHT22;8060;50.948;3.146;2022-11-20T08:25:49;7.20;99.90
15922;DHT22;8060;50.948;3.146;2022-11-20T08:28:19;7.30;99.90
15922;DHT22;8060;50.948;3.146;2022-11-20T08:30:48;7.30;99.90
15922;DHT22;8060;50.948;3.146;2022-11-20T08:33:17;7.30;99.90
15922;DHT22;8060;50.948;3.146;2022-11-20T08:35:46;7.30;99.90
15922;DHT22;8060;50.948;3.146;2022-11-20T08:38:14;7.30;99.90
15922;DHT22;8060;50.948;3.146;2022-11-20T08:40:42;7.40;99.90
15922;DHT22;8060;50.948;3.146;2022-11-20T08:43:33;7.50;99.90
15922;DHT22;8060;50.948;3.146;2022-11-20T08:46:01;7.50;99.90
15922;DHT22;8060;50.948;3.146;2022-11-20T08:48:29;7.50;99.90
15922;DHT22;8060;50.948;3.146;2022-11-20T08:50:58;7.50;99.90
15922;DHT22;8060;50.948;3.146;2022-11-20T08:53:27;7.50;99.90
15922;DHT22;8060;50.948;3.146;2022-11-20T08:55:56;7.60;99.90
15922;DHT22;8060;50.948;3.146;2022-11-20T08:58:25;7.70;99.90
15922;DHT22;8060;50.948;3.146;2022-11-20T09:00:55;7.70;99.90
15922;DHT22;8060;50.948;3.146;2022-11-20T09:03:23;7.70;99.90
15922;DHT22;8060;50.948;3.146;2022-11-20T09:05:59;7.80;99.90
15922;DHT22;8060;50.948;3.146;2022-11-20T09:08:28;7.80;99.90
15922;DHT22;8060;50.948;3.146;2022-11-20T09:10:57;7.90;99.90
15922;DHT22;8060;50.948;3.146;2022-11-20T09:13:26;7.90;99.90
15922;DHT22;8060;50.948;3.146;2022-11-20T09:15:58;8.00;99.90
15922;DHT22;8060;50.948;3.146;2022-11-20T09:18:27;8.00;99.90
15922;DHT22;8060;50.948;3.146;2022-11-20T09:20:57;8.10;99.90
15922;DHT22;8060;50.948;3.146;2022-11-20T09:23:26;8.10;99.90
15922;DHT22;8060;50.948;3.146;2022-11-20T09:25:54;8.10;99.90
15922;DHT22;8060;50.948;3.146;2022-11-20T09:28:26;8.20;99.90
15922;DHT22;8060;50.948;3.146;2022-11-20T09:30:54;8.20;99.90
15922;DHT22;8060;50.948;3.146;2022-11-20T09:33:24;8.30;99.90
15922;DHT22;8060;50.948;3.146;2022-11-20T09:35:52;8.40;99.90
15922;DHT22;8060;50.948;3.146;2022-11-20T09:38:20;8.40;99.90
15922;DHT22;8060;50.948;3.146;2022-11-20T09:40:55;8.50;99.90
15922;DHT22;8060;50.948;3.146;2022-11-20T09:43:32;8.50;99.90
15922;DHT22;8060;50.948;3.146;2022-11-20T09:46:12;8.50;99.90
15922;DHT22;8060;50.948;3.146;2022-11-20T09:48:52;8.60;99.90
15922;DHT22;8060;50.948;3.146;2022-11-20T09:51:32;8.60;99.90
15922;DHT22;8060;50.948;3.146;2022-11-20T09:54:15;8.70;99.90
15922;DHT22;8060;50.948;3.146;2022-11-20T09:56:46;8.70;99.90
15922;DHT22;8060;50.948;3.146;2022-11-20T09:59:26;8.70;99.90
15922;DHT22;8060;50.948;3.146;2022-11-20T10:01:57;8.80;99.90
15922;DHT22;8060;50.948;3.146;2022-11-20T10:04:30;8.80;99.90
15922;DHT22;8060;50.948;3.146;2022-11-20T10:07:08;8.80;99.90
15922;DHT22;8060;50.948;3.146;2022-11-20T10:09:59;8.90;99.90
15922;DHT22;8060;50.948;3.146;2022-11-20T10:12:35;9.00;99.90
15922;DHT22;8060;50.948;3.146;2022-11-20T10:15:14;9.00;99.90
15922;DHT22;8060;50.948;3.146;2022-11-20T10:17:57;9.00;99.90
15922;DHT22;8060;50.948;3.146;2022-11-20T10:20:35;8.90;99.90
15922;DHT22;8060;50.948;3.146;2022-11-20T10:23:20;9.00;99.90
15922;DHT22;8060;50.948;3.146;2022-11-20T10:26:00;9.00;99.90
15922;DHT22;8060;50.948;3.146;2022-11-20T10:28:48;8.90;99.90
15922;DHT22;8060;50.948;3.146;2022-11-20T10:31:31;8.90;99.90
15922;DHT22;8060;50.948;3.146;2022-11-20T10:34:04;8.90;99.90
15922;DHT22;8060;50.948;3.146;2022-11-20T10:36:44;8.80;99.90
15922;DHT22;8060;50.948;3.146;2022-11-20T10:39:19;8.80;99.90
15922;DHT22;8060;50.948;3.146;2022-11-20T10:41:52;8.70;99.90
15922;DHT22;8060;50.948;3.146;2022-11-20T10:44:21;8.80;99.90
15922;DHT22;8060;50.948;3.146;2022-11-20T10:47:04;8.80;99.90
15922;DHT22;8060;50.948;3.146;2022-11-20T10:49:34;8.70;99.90
15922;DHT22;8060;50.948;3.146;2022-11-20T10:52:09;8.80;99.90
15922;DHT22;8060;50.948;3.146;2022-11-20T10:54:43;8.70;99.90
15922;DHT22;8060;50.948;3.146;2022-11-20T10:57:20;8.60;99.90
15922;DHT22;8060;50.948;3.146;2022-11-20T10:59:59;8.60;99.90
15922;DHT22;8060;50.948;3.146;2022-11-20T11:02:35;8.60;99.90
15922;DHT22;8060;50.948;3.146;2022-11-20T11:05:22;8.60;99.90
15922;DHT22;8060;50.948;3.146;2022-11-20T11:07:56;8.60;99.90
15922;DHT22;8060;50.948;3.146;2022-11-20T11:10:30;8.70;99.90
15922;DHT22;8060;50.948;3.146;2022-11-20T11:13:02;8.70;99.90
15922;DHT22;8060;50.948;3.146;2022-11-20T11:15:37;8.60;99.90
15922;DHT22;8060;50.948;3.146;2022-11-20T11:18:08;8.70;99.90
15922;DHT22;8060;50.948;3.146;2022-11-20T11:20:37;8.60;99.90
15922;DHT22;8060;50.948;3.146;2022-11-20T11:23:26;8.50;99.90
15922;DHT22;8060;50.948;3.146;2022-11-20T11:25:57;8.60;99.90
15922;DHT22;8060;50.948;3.146;2022-11-20T11:28:26;8.50;99.90
15922;DHT22;8060;50.948;3.146;2022-11-20T11:30:55;8.50;99.90
15922;DHT22;8060;50.948;3.146;2022-11-20T11:33:25;8.50;99.90
15922;DHT22;8060;50.948;3.146;2022-11-20T11:35:55;8.50;99.90
15922;DHT22;8060;50.948;3.146;2022-11-20T11:38:32;8.50;99.90
15922;DHT22;8060;50.948;3.146;2022-11-20T11:41:01;8.60;99.90
15922;DHT22;8060;50.948;3.146;2022-11-20T11:43:33;8.60;99.90
15922;DHT22;8060;50.948;3.146;2022-11-20T11:46:31;8.70;99.90
15922;DHT22;8060;50.948;3.146;2022-11-20T11:49:08;8.70;99.90
15922;DHT22;8060;50.948;3.146;2022-11-20T11:52:00;8.60;99.90
15922;DHT22;8060;50.948;3.146;2022-11-20T11:54:36;8.60;99.90
15922;DHT22;8060;50.948;3.146;2022-11-20T11:57:12;8.60;99.90
15922;DHT22;8060;50.948;3.146;2022-11-20T11:59:53;8.60;99.90
15922;DHT22;8060;50.948;3.146;2022-11-20T12:02:32;8.60;99.90
15922;DHT22;8060;50.948;3.146;2022-11-20T12:05:10;8.70;99.90
15922;DHT22;8060;50.948;3.146;2022-11-20T12:07:43;8.70;99.90
15922;DHT22;8060;50.948;3.146;2022-11-20T12:10:36;8.80;99.90
15922;DHT22;8060;50.948;3.146;2022-11-20T12:13:26;8.80;99.90
15922;DHT22;8060;50.948;3.146;2022-11-20T12:15:58;8.80;99.90
15922;DHT22;8060;50.948;3.146;2022-11-20T12:18:27;8.80;99.90
15922;DHT22;8060;50.948;3.146;2022-11-20T12:21:06;8.80;99.90
15922;DHT22;8060;50.948;3.146;2022-11-20T12:23:44;8.80;99.90
15922;DHT22;8060;50.948;3.146;2022-11-20T12:26:26;8.80;99.90
15922;DHT22;8060;50.948;3.146;2022-11-20T12:29:02;8.80;99.90
15922;DHT22;8060;50.948;3.146;2022-11-20T12:31:56;8.90;99.90
15922;DHT22;8060;50.948;3.146;2022-11-20T12:34:41;8.90;99.90
15922;DHT22;8060;50.948;3.146;2022-11-20T12:44:05;8.90;99.90
15922;DHT22;8060;50.948;3.146;2022-11-20T12:47:07;8.90;99.90
15922;DHT22;8060;50.948;3.146;2022-11-20T12:49:48;8.90;99.90
15922;DHT22;8060;50.948;3.146;2022-11-20T12:52:37;8.90;99.90
15922;DHT22;8060;50.948;3.146;2022-11-20T12:55:21;8.90;99.90
15922;DHT22;8060;50.948;3.146;2022-11-20T13:06:49;9.00;99.90
15922;DHT22;8060;50.948;3.146;2022-11-20T13:09:19;9.00;99.90
15922;DHT22;8060;50.948;3.146;2022-11-20T13:11:55;8.90;99.90
15922;DHT22;8060;50.948;3.146;2022-11-20T13:14:33;9.00;99.90
15922;DHT22;8060;50.948;3.146;2022-11-20T13:21:50;9.10;99.90
15922;DHT22;8060;50.948;3.146;2022-11-20T13:24:24;9.10;99.90
15922;DHT22;8060;50.948;3.146;2022-11-20T13:27:04;9.20;99.90
15922;DHT22;8060;50.948;3.146;2022-11-20T13:29:33;9.40;99.90
15922;DHT22;8060;50.948;3.146;2022-11-20T13:32:05;9.70;99.90
15922;DHT22;8060;50.948;3.146;2022-11-20T13:34:34;9.90;99.90
15922;DHT22;8060;50.948;3.146;2022-11-20T13:37:05;10.60;99.90
15922;DHT22;8060;50.948;3.146;2022-11-20T13:39:34;11.50;99.90
15922;DHT22;8060;50.948;3.146;2022-11-20T13:42:21;11.70;99.90
15922;DHT22;8060;50.948;3.146;2022-11-20T13:44:54;11.90;99.90
15922;DHT22;8060;50.948;3.146;2022-11-20T13:47:24;12.10;99.90
15922;DHT22;8060;50.948;3.146;2022-11-20T13:49:55;12.00;99.90
15922;DHT22;8060;50.948;3.146;2022-11-20T13:52:37;11.80;99.90
15922;DHT22;8060;50.948;3.146;2022-11-20T13:55:18;11.80;99.90
15922;DHT22;8060;50.948;3.146;2022-11-20T13:58:12;12.00;99.90
15922;DHT22;8060;50.948;3.146;2022-11-20T14:00:57;12.30;99.90
15922;DHT22;8060;50.948;3.146;2022-11-20T14:03:29;12.70;99.90
15922;DHT22;8060;50.948;3.146;2022-11-20T14:06:25;13.20;99.90
15922;DHT22;8060;50.948;3.146;2022-11-20T14:08:56;13.60;99.90
15922;DHT22;8060;50.948;3.146;2022-11-20T14:11:25;13.30;99.90
15922;DHT22;8060;50.948;3.146;2022-11-20T14:13:59;13.00;99.90
15922;DHT22;8060;50.948;3.146;2022-11-20T14:16:30;13.10;99.90
15922;DHT22;8060;50.948;3.146;2022-11-20T14:19:23;13.00;99.90
15922;DHT22;8060;50.948;3.146;2022-11-20T14:21:53;12.80;99.90
15922;DHT22;8060;50.948;3.146;2022-11-20T14:24:24;12.80;99.90
15922;DHT22;8060;50.948;3.146;2022-11-20T14:26:53;13.20;99.90
15922;DHT22;8060;50.948;3.146;2022-11-20T14:29:25;13.10;99.90
15922;DHT22;8060;50.948;3.146;2022-11-20T14:31:55;12.90;99.90
15922;DHT22;8060;50.948;3.146;2022-11-20T14:34:26;12.80;99.90
15922;DHT22;8060;50.948;3.146;2022-11-20T14:36:57;13.00;99.90
15922;DHT22;8060;50.948;3.146;2022-11-20T14:39:30;12.70;99.90
15922;DHT22;8060;50.948;3.146;2022-11-20T14:42:00;12.70;99.90
15922;DHT22;8060;50.948;3.146;2022-11-20T14:44:31;12.70;99.90
15922;DHT22;8060;50.948;3.146;2022-11-20T14:47:02;12.90;99.90
15922;DHT22;8060;50.948;3.146;2022-11-20T14:49:31;13.30;99.90
15922;DHT22;8060;50.948;3.146;2022-11-20T14:52:00;13.40;99.90
15922;DHT22;8060;50.948;3.146;2022-11-20T14:54:30;13.40;99.90
15922;DHT22;8060;50.948;3.146;2022-11-20T14:57:01;13.40;99.90
15922;DHT22;8060;50.948;3.146;2022-11-20T14:59:31;13.10;99.90
15922;DHT22;8060;50.948;3.146;2022-11-20T15:02:02;12.60;99.90
15922;DHT22;8060;50.948;3.146;2022-11-20T15:04:31;12.30;99.90
15922;DHT22;8060;50.948;3.146;2022-11-20T15:07:01;12.00;99.90
15922;DHT22;8060;50.948;3.146;2022-11-20T15:09:30;11.80;99.90
15922;DHT22;8060;50.948;3.146;2022-11-20T15:12:01;11.70;99.90
15922;DHT22;8060;50.948;3.146;2022-11-20T15:14:31;11.70;99.90
15922;DHT22;8060;50.948;3.146;2022-11-20T15:17:00;11.60;99.90
15922;DHT22;8060;50.948;3.146;2022-11-20T15:19:28;11.60;99.90
15922;DHT22;8060;50.948;3.146;2022-11-20T15:21:56;11.50;99.90
15922;DHT22;8060;50.948;3.146;2022-11-20T15:24:25;11.40;99.90
